QXE2365 KSEA-KRDD
Flight info
| Callsign | QXE2365 |
|---|---|
| Flight time | N/A |
| Altitude | 35000 |
| Route | HAROB6 HISKU Q5 HARPR |
| Aircraft | E75L/M-SDE3GILORVW/S |
Departure
| Time | 2026-05-01 14:47 |
|---|---|
| Airport | Seattle–Tacoma International Airport (KSEA) |
Arrival
| Time | N/A |
|---|---|
| Airport | Redding Municipal Airport (KRDD) |
| Time | Latitude | Longitude | Altitude | Speed | Heading |
|---|---|---|---|---|---|
| 2026-05-01 14:25 | 47.44691 | -122.30473 | 402 ft | 0 kts | 139° |
| 2026-05-01 14:38 | 47.44702 | -122.30488 | 402 ft | 4 kts | 128° |
| 2026-05-01 14:39 | 47.44716 | -122.30522 | 402 ft | 4 kts | 123° |
| 2026-05-01 14:39 | 47.44732 | -122.30540 | 403 ft | 1 kts | 180° |
| 2026-05-01 14:39 | 47.44733 | -122.30540 | 403 ft | 0 kts | 180° |
| 2026-05-01 14:42 | 47.44724 | -122.30540 | 402 ft | 4 kts | 180° |
| 2026-05-01 14:42 | 47.44679 | -122.30540 | 401 ft | 9 kts | 180° |
| 2026-05-01 14:42 | 47.44600 | -122.30539 | 397 ft | 14 kts | 179° |
| 2026-05-01 14:42 | 47.44490 | -122.30541 | 394 ft | 18 kts | 180° |
| 2026-05-01 14:43 | 47.44387 | -122.30542 | 393 ft | 11 kts | 181° |
| 2026-05-01 14:43 | 47.44344 | -122.30599 | 391 ft | 10 kts | 240° |
| 2026-05-01 14:43 | 47.44268 | -122.30634 | 388 ft | 14 kts | 180° |
| 2026-05-01 14:43 | 47.44152 | -122.30634 | 385 ft | 19 kts | 180° |
| 2026-05-01 14:44 | 47.44012 | -122.30636 | 382 ft | 22 kts | 180° |
| 2026-05-01 14:44 | 47.43690 | -122.30639 | 372 ft | 15 kts | 180° |
| 2026-05-01 14:44 | 47.43601 | -122.30599 | 369 ft | 13 kts | 147° |
| 2026-05-01 14:45 | 47.43505 | -122.30560 | 367 ft | 16 kts | 179° |
| 2026-05-01 14:45 | 47.43248 | -122.30570 | 360 ft | 16 kts | 197° |
| 2026-05-01 14:45 | 47.43175 | -122.30671 | 356 ft | 13 kts | 263° |
| 2026-05-01 14:46 | 47.43202 | -122.30790 | 362 ft | 10 kts | 330° |
| 2026-05-01 14:46 | 47.43732 | -122.30801 | 370 ft | 98 kts | 1° |
| 2026-05-01 14:46 | 47.44621 | -122.30795 | 430 ft | 152 kts | 0° |
| 2026-05-01 14:47 | 47.45720 | -122.30803 | 1076 ft | 163 kts | 2° |
| 2026-05-01 14:47 | 47.46906 | -122.30771 | 1689 ft | 177 kts | 3° |
| 2026-05-01 14:47 | 47.48170 | -122.30715 | 2262 ft | 188 kts | 2° |
| 2026-05-01 14:48 | 47.51088 | -122.30727 | 3354 ft | 225 kts | 358° |
| 2026-05-01 14:48 | 47.52758 | -122.30837 | 3726 ft | 258 kts | 357° |
| 2026-05-01 14:48 | 47.56403 | -122.31931 | 5258 ft | 275 kts | 329° |
| 2026-05-01 14:49 | 47.59616 | -122.35141 | 7020 ft | 282 kts | 320° |
| 2026-05-01 14:49 | 47.61273 | -122.40286 | 8655 ft | 285 kts | 279° |
| 2026-05-01 14:50 | 47.61702 | -122.44165 | 9616 ft | 290 kts | 274° |
| 2026-05-01 14:50 | 47.59267 | -122.51077 | 10900 ft | 308 kts | 225° |
| 2026-05-01 14:51 | 47.57782 | -122.53366 | 11595 ft | 309 kts | 226° |
| 2026-05-01 14:51 | 47.54846 | -122.58021 | 12980 ft | 310 kts | 226° |
| 2026-05-01 14:52 | 47.51853 | -122.62706 | 14297 ft | 316 kts | 226° |
| 2026-05-01 14:52 | 47.50334 | -122.65072 | 14939 ft | 320 kts | 226° |
| 2026-05-01 14:52 | 47.47231 | -122.69868 | 16254 ft | 325 kts | 225° |
| 2026-05-01 14:53 | 47.45651 | -122.72285 | 16867 ft | 329 kts | 225° |
| 2026-05-01 14:53 | 47.44054 | -122.74723 | 17513 ft | 331 kts | 225° |
| 2026-05-01 14:53 | 47.42437 | -122.77183 | 18123 ft | 334 kts | 225° |
| 2026-05-01 14:53 | 47.40810 | -122.79652 | 18726 ft | 338 kts | 225° |
| 2026-05-01 14:54 | 47.39160 | -122.82144 | 19380 ft | 340 kts | 225° |
| 2026-05-01 14:54 | 47.37494 | -122.84653 | 20032 ft | 344 kts | 225° |
| 2026-05-01 14:54 | 47.35828 | -122.87149 | 20679 ft | 347 kts | 225° |
| 2026-05-01 14:54 | 47.34123 | -122.89691 | 21305 ft | 350 kts | 225° |
| 2026-05-01 14:55 | 47.32399 | -122.92250 | 21855 ft | 353 kts | 225° |
| 2026-05-01 14:55 | 47.30657 | -122.94820 | 22421 ft | 355 kts | 225° |
| 2026-05-01 14:55 | 47.28899 | -122.97407 | 22944 ft | 358 kts | 225° |
| 2026-05-01 14:55 | 47.27119 | -123.00014 | 23453 ft | 362 kts | 225° |
| 2026-05-01 14:56 | 47.25329 | -123.02626 | 24000 ft | 364 kts | 225° |
| 2026-05-01 14:56 | 47.23425 | -123.05092 | 24454 ft | 367 kts | 219° |
| 2026-05-01 14:56 | 47.21377 | -123.07393 | 24955 ft | 371 kts | 218° |
| 2026-05-01 14:56 | 47.19322 | -123.09614 | 25502 ft | 372 kts | 217° |
| 2026-05-01 14:57 | 47.17225 | -123.11884 | 26007 ft | 375 kts | 218° |
| 2026-05-01 14:57 | 47.13004 | -123.16498 | 26978 ft | 380 kts | 218° |
| 2026-05-01 14:57 | 47.10875 | -123.18829 | 27397 ft | 382 kts | 218° |
| 2026-05-01 14:58 | 47.08549 | -123.20763 | 27753 ft | 389 kts | 202° |
| 2026-05-01 14:58 | 47.05881 | -123.21502 | 28180 ft | 395 kts | 184° |
| 2026-05-01 14:58 | 47.03123 | -123.21378 | 28534 ft | 399 kts | 180° |
| 2026-05-01 14:58 | 47.00336 | -123.21145 | 28867 ft | 402 kts | 179° |
| 2026-05-01 14:59 | 46.97533 | -123.20856 | 29229 ft | 405 kts | 179° |
| 2026-05-01 14:59 | 46.94717 | -123.20551 | 29594 ft | 407 kts | 179° |
| 2026-05-01 14:59 | 46.91889 | -123.20251 | 29961 ft | 408 kts | 179° |
| 2026-05-01 14:59 | 46.89078 | -123.19961 | 30318 ft | 410 kts | 179° |
| 2026-05-01 15:00 | 46.83345 | -123.19371 | 30929 ft | 415 kts | 179° |
| 2026-05-01 15:00 | 46.80456 | -123.19069 | 31225 ft | 417 kts | 179° |
| 2026-05-01 15:00 | 46.77559 | -123.18766 | 31485 ft | 419 kts | 179° |
| 2026-05-01 15:01 | 46.74639 | -123.18458 | 31737 ft | 421 kts | 179° |
| 2026-05-01 15:01 | 46.71712 | -123.18148 | 31987 ft | 423 kts | 179° |
| 2026-05-01 15:01 | 46.68766 | -123.17837 | 32223 ft | 425 kts | 179° |
| 2026-05-01 15:01 | 46.65820 | -123.17525 | 32506 ft | 425 kts | 179° |
| 2026-05-01 15:02 | 46.62877 | -123.17218 | 32829 ft | 424 kts | 179° |
| 2026-05-01 15:02 | 46.61883 | -123.17115 | 32930 ft | 423 kts | 179° |
| 2026-05-01 15:02 | 46.57008 | -123.16608 | 33425 ft | 422 kts | 179° |
| 2026-05-01 15:02 | 46.54076 | -123.16300 | 33703 ft | 422 kts | 179° |
| 2026-05-01 15:03 | 46.51154 | -123.15991 | 33947 ft | 422 kts | 179° |
| 2026-05-01 15:03 | 46.48219 | -123.15681 | 34215 ft | 421 kts | 179° |
| 2026-05-01 15:03 | 46.46284 | -123.15478 | 34403 ft | 421 kts | 179° |
| 2026-05-01 15:03 | 46.42410 | -123.15073 | 34765 ft | 420 kts | 179° |
| 2026-05-01 15:04 | 46.39494 | -123.14763 | 34992 ft | 420 kts | 179° |
| 2026-05-01 15:04 | 46.36588 | -123.14453 | 35210 ft | 422 kts | 179° |
| 2026-05-01 15:04 | 46.34632 | -123.14242 | 35197 ft | 427 kts | 179° |
| 2026-05-01 15:05 | 46.28613 | -123.13570 | 35097 ft | 440 kts | 179° |
| 2026-05-01 15:05 | 46.22468 | -123.12881 | 35110 ft | 442 kts | 179° |
| 2026-05-01 15:06 | 46.16360 | -123.12208 | 35110 ft | 442 kts | 179° |
| 2026-05-01 15:06 | 46.10224 | -123.11532 | 35108 ft | 443 kts | 179° |
| 2026-05-01 15:07 | 46.04072 | -123.10858 | 35101 ft | 443 kts | 179° |
| 2026-05-01 15:07 | 45.97928 | -123.10182 | 35094 ft | 443 kts | 179° |
| 2026-05-01 15:08 | 45.91763 | -123.09510 | 35101 ft | 445 kts | 179° |
| 2026-05-01 15:08 | 45.85589 | -123.08838 | 35090 ft | 445 kts | 179° |
| 2026-05-01 15:09 | 45.79416 | -123.08166 | 35093 ft | 445 kts | 179° |
| 2026-05-01 15:09 | 45.73370 | -123.07503 | 35100 ft | 428 kts | 179° |
| 2026-05-01 15:10 | 45.67406 | -123.06863 | 35105 ft | 431 kts | 179° |
| 2026-05-01 15:10 | 45.58413 | -123.05895 | 35101 ft | 431 kts | 179° |
| 2026-05-01 15:11 | 45.49469 | -123.04928 | 35099 ft | 431 kts | 179° |
| 2026-05-01 15:12 | 45.43482 | -123.04284 | 35103 ft | 432 kts | 179° |
| 2026-05-01 15:12 | 45.34490 | -123.03321 | 35111 ft | 432 kts | 179° |
| 2026-05-01 15:14 | 45.19491 | -123.01719 | 35106 ft | 432 kts | 179° |
| 2026-05-01 15:14 | 45.10519 | -123.00767 | 35107 ft | 432 kts | 179° |
| 2026-05-01 15:15 | 44.98492 | -122.99496 | 35109 ft | 433 kts | 179° |
| 2026-05-01 15:16 | 44.86455 | -122.98227 | 35109 ft | 434 kts | 179° |
| 2026-05-01 15:18 | 44.71442 | -122.96650 | 35105 ft | 434 kts | 179° |
| 2026-05-01 15:19 | 44.59392 | -122.95394 | 35108 ft | 434 kts | 179° |
| 2026-05-01 15:19 | 44.50355 | -122.94453 | 35121 ft | 434 kts | 179° |
| 2026-05-01 15:20 | 44.41352 | -122.94085 | 35114 ft | 433 kts | 182° |
| 2026-05-01 15:21 | 44.35335 | -122.93923 | 35116 ft | 433 kts | 182° |
| 2026-05-01 15:21 | 44.29301 | -122.93732 | 35124 ft | 434 kts | 182° |
| 2026-05-01 15:22 | 44.20250 | -122.93427 | 35137 ft | 433 kts | 182° |
| 2026-05-01 15:22 | 44.14213 | -122.93224 | 35128 ft | 433 kts | 182° |
| 2026-05-01 15:23 | 44.08223 | -122.93025 | 35126 ft | 434 kts | 182° |
| 2026-05-01 15:23 | 44.02184 | -122.92829 | 35125 ft | 434 kts | 182° |
| 2026-05-01 15:24 | 43.96139 | -122.92632 | 35130 ft | 436 kts | 182° |
| 2026-05-01 15:24 | 43.90068 | -122.92435 | 35126 ft | 436 kts | 182° |
| 2026-05-01 15:25 | 43.83997 | -122.92233 | 35128 ft | 436 kts | 182° |
| 2026-05-01 15:25 | 43.77924 | -122.92033 | 35127 ft | 436 kts | 182° |
| 2026-05-01 15:26 | 43.71858 | -122.91835 | 35126 ft | 436 kts | 182° |
| 2026-05-01 15:26 | 43.65783 | -122.91639 | 35131 ft | 437 kts | 182° |
| 2026-05-01 15:27 | 43.59738 | -122.91444 | 35130 ft | 437 kts | 182° |
| 2026-05-01 15:28 | 43.50625 | -122.91151 | 35133 ft | 436 kts | 183° |
| 2026-05-01 15:28 | 43.44561 | -122.90952 | 35139 ft | 436 kts | 182° |
| 2026-05-01 15:29 | 43.35425 | -122.90659 | 35134 ft | 437 kts | 183° |
| 2026-05-01 15:30 | 43.23313 | -122.90274 | 35124 ft | 437 kts | 183° |
| 2026-05-01 15:31 | 43.05010 | -122.89685 | 35126 ft | 438 kts | 183° |
| 2026-05-01 15:32 | 42.92796 | -122.89297 | 35101 ft | 439 kts | 183° |
| 2026-05-01 15:34 | 42.74464 | -122.88711 | 35100 ft | 440 kts | 183° |